Birmingham-Shuttlesworth International Airport
KBHM : rendu visible

Aérodrome :











RETROUVEZ-NOUS SUR...

 
LOGIN :

S'inscrire | Disclaimer

   EN    FR    IT 

 









Légende :    VFR   VFR Marginal   IFR   IFR Intensif   IFR Très Intensif
Visi : 
Plafond : 
>= 8 km
>= 3000ft
5 à 8 km
1000 à 3000 ft
1500m à 5 km
500 à 1000 ft
800 à 1500m
200 à 500 ft
< 800m
< 200 ft
Symboles :   Orages  Brouillard  Fortes neiges  Fortes précipitations  Vent > 20 kt







- Altitude de l'aérodrome : 650 ft
- Code IATA : BHM


KBHM - Birmingham-Shuttlesworth International

DERNIER METAR :
  • 190053Z 17003KT 10SM BKN023 OVC031 23/22 A2991 RMK AO2 TSE09 SLP119 TS MOV NE T02330217

METARs EXPIRÉS :
  • 190049Z 00000KT 10SM BKN023 BKN031 23/22 A2991 RMK AO2 TSE09 TS MOV NE
  • 190015Z 15003KT 10SM SCT055 BKN080 23/22 A2991 RMK AO2 TSE09 TS MOV NE T02330222
  • 182353Z 00000KT 9SM TS FEW055CB SCT070 OVC090 24/22 A2991 RMK AO2 RAB2256E50 SLP119 OCNL LTGIC E TS E MOV NE P0028 60067 T02390217 10278 20228 56003
  • 182340Z 12003KT 7SM -TSRA FEW007 BKN075CB OVC090 23/21 A2990 RMK AO2 LTG DSNT E RAB2256 OCNL LTGIC E TS E MOV NE P0028 T02330211
  • 182320Z 20005KT 4SM TSRA BR SCT007 BKN021CB BKN080 23/22 A2991 RMK AO2 LTG DSNT N RAB2256 OCNL LTGIC NE TS NE MOV NE P0028 T02280217
  • 182303Z VRB05KT 2SM TSRA BR FEW025 BKN035CB OVC110 23/22 A2991 RMK AO2 LTG DSNT SW RAB2256 OCNL LTGIC OHD TS OHD MOV NE P0015 T02280217
  • 182253Z 00000KT 4SM TS BR SCT035CB BKN050 BKN070 24/22 A2991 RMK AO2 LTG DSNT N AND SW TSE15B32 SLP119 OCNL LTGIC SW TS SW MOV NE T02440222
  • 182238Z 21004KT 6SM TS BR SCT035CB BKN050 OVC080 24/22 A2990 RMK AO2 LTG DSNT SW-NW TSE15B32 OCNL LTGIC SW TS SW MOV NE T02440222
  • 182230Z 19006KT 10SM VCTS FEW042 BKN070 24/22 A2990 RMK AO2 LTG DSNT SW AND W TSE15 TS MOV NE T02440217
  • 182221Z 19004KT 10SM FEW042 BKN070 24/22 A2990 RMK AO2 LTG DSNT SW AND W TSE15 TS MOV NE T02440217

TAF KBHM
Valide du 19 à 00h jusqu'au 20 à 00h UTC


182333Z 1900/1924 18008KT P6SM VCTS SCT015 BKN035CB OVC120
FM190200 20006KT P6SM VCSH BKN040
FM190700 20005KT P6SM OVC015
FM191400 25011KT P6SM BKN050
PROB30 1916/1922 VRB10G20KT TSRA BKN040CB
FIR KZTL / Amérique du Nord



MET'MAP, la Météo Aéronautique d'un coup d'oeil ! - Copyright ORBIFLY Décembre 2007 - Disclaimer

ORBIFLY MET'MAP TEAM :

Programmation & Développement : Alexandra Zaïnal
Conception & Développement : Baudouin d'Aumeries
Co-Programmation & Développement : Marc-Olivier Méhu
Soutien technique & logistique : Manuel Goepfert

Contact : metmap@orbifly.com




SOURCES & CREDITS :

   NOAA       Earth
Advisory